Time;durP1;ratioP1;P1;durP2;ratioP2;P2;SDS_P1;SDS_P2;PMS_P1;PMS_P2;Temp;Humidity;BMP_temperature;BMP_pressure;BME280_temperature;BME280_humidity;BME280_pressure;Samples;Min_cycle;Max_cycle;Signal;HPM_P1;HPM_P2
2021/11/19 00:01:27;;;;;;;21.27;10.55;;;;;;;0.49;100.00;96842.09;5030849;28;20121;-76
2021/11/19 00:03:53;;;;;;;24.70;11.07;;;;;;;0.41;100.00;96838.75;5031907;28;20033;-76
2021/11/19 00:06:20;;;;;;;23.25;10.60;;;;;;;0.32;100.00;96835.41;5025859;28;20048;-76
2021/11/19 00:08:47;;;;;;;24.38;12.13;;;;;;;0.38;100.00;96839.91;5031340;28;20046;-76
2021/11/19 00:11:15;;;;;;;22.63;11.48;;;;;;;0.38;100.00;96834.72;5030631;28;20118;-76
2021/11/19 00:13:41;;;;;;;21.13;10.45;;;;;;;0.24;100.00;96835.47;5015861;28;20057;-76
2021/11/19 00:16:09;;;;;;;22.13;11.13;;;;;;;0.21;100.00;96838.41;5032584;28;20041;-77
2021/11/19 00:18:35;;;;;;;26.85;11.50;;;;;;;0.22;100.00;96840.81;5031956;28;20151;-77
2021/11/19 00:21:01;;;;;;;21.83;10.63;;;;;;;0.33;100.00;96831.84;5032064;28;20093;-75
2021/11/19 00:23:27;;;;;;;21.45;10.45;;;;;;;0.26;100.00;96830.91;5030258;28;20041;-76
2021/11/19 00:25:53;;;;;;;21.25;10.18;;;;;;;0.23;100.00;96841.59;5029801;28;20817;-77
2021/11/19 00:28:18;;;;;;;22.65;10.40;;;;;;;0.24;100.00;96840.63;5030328;28;20626;-76
2021/11/19 00:30:45;;;;;;;22.73;10.55;;;;;;;0.26;100.00;96846.44;5031107;28;20095;-76
2021/11/19 00:33:12;;;;;;;19.38;9.90;;;;;;;0.06;100.00;96836.53;5017448;28;20049;-76
2021/11/19 00:35:40;;;;;;;19.60;9.35;;;;;;;-0.04;100.00;96846.28;5022256;28;20045;-76
2021/11/19 00:38:09;;;;;;;22.35;10.32;;;;;;;-0.12;100.00;96848.91;5031424;28;20107;-77
2021/11/19 00:40:45;;;;;;;24.23;11.25;;;;;;;-0.38;100.00;96855.16;5032271;28;20072;-76
2021/11/19 00:43:11;;;;;;;23.10;10.38;;;;;;;-0.39;100.00;96867.28;5034193;28;20041;-76
2021/11/19 00:45:37;;;;;;;23.17;10.13;;;;;;;-0.34;100.00;96869.38;5032139;28;20064;-76
2021/11/19 00:48:05;;;;;;;22.63;9.93;;;;;;;-0.14;100.00;96868.97;5033106;28;20523;-76
2021/11/19 00:50:53;;;;;;;24.20;10.18;;;;;;;-0.12;100.00;96872.22;5030687;28;20045;-76
2021/11/19 00:53:19;;;;;;;22.67;9.82;;;;;;;-0.20;100.00;96868.66;5023215;28;20048;-76
2021/11/19 00:55:45;;;;;;;18.98;9.38;;;;;;;-0.13;100.00;96868.00;5030296;28;20042;-77
2021/11/19 00:58:12;;;;;;;18.35;8.70;;;;;;;-0.04;100.00;96861.81;5032488;28;20045;-77
2021/11/19 01:00:52;;;;;;;18.35;9.18;;;;;;;-0.05;100.00;96849.84;5036244;28;20041;-77
2021/11/19 01:03:20;;;;;;;20.77;9.27;;;;;;;-0.06;100.00;96843.88;5034985;28;20056;-76
2021/11/19 01:05:47;;;;;;;18.55;9.25;;;;;;;-0.09;100.00;96844.19;5022365;28;20037;-77
2021/11/19 01:08:13;;;;;;;20.70;9.45;;;;;;;-0.07;100.00;96836.25;5034675;28;20045;-77
2021/11/19 01:10:40;;;;;;;24.27;10.80;;;;;;;-0.01;100.00;96841.56;5035151;28;20042;-76
2021/11/19 01:13:07;;;;;;;23.08;10.20;;;;;;;0.01;100.00;96833.63;5035505;28;20046;-76
2021/11/19 01:15:41;;;;;;;22.88;10.85;;;;;;;-0.06;100.00;96832.69;5026901;28;20119;-77
2021/11/19 01:18:09;;;;;;;20.15;9.73;;;;;;;-0.25;100.00;96842.47;5033426;28;20041;-77
2021/11/19 01:20:47;;;;;;;26.30;11.10;;;;;;;-0.39;100.00;96843.19;5035731;28;20049;-76
2021/11/19 01:23:14;;;;;;;23.88;10.32;;;;;;;-0.44;100.00;96842.91;5033755;28;20072;-76
2021/11/19 01:25:45;;;;;;;22.83;10.02;;;;;;;-0.45;100.00;96843.84;5035432;28;20640;-77
2021/11/19 01:28:10;;;;;;;25.30;10.00;;;;;;;-0.34;100.00;96846.09;5035110;28;20119;-77
2021/11/19 01:30:41;;;;;;;23.65;10.18;;;;;;;-0.08;100.00;96839.84;5027678;28;20041;-76
2021/11/19 01:33:07;;;;;;;25.17;9.80;;;;;;;-0.30;100.00;96837.03;5034558;28;20074;-77
2021/11/19 01:35:33;;;;;;;20.40;9.15;;;;;;;-0.47;100.00;96840.66;5033186;28;20041;-76
2021/11/19 01:37:59;;;;;;;21.10;10.20;;;;;;;-0.51;100.00;96839.38;5042892;28;20050;-77
2021/11/19 01:40:29;;;;;;;19.05;10.10;;;;;;;-0.53;100.00;96842.91;5035992;28;20089;-77
2021/11/19 01:42:59;;;;;;;21.40;9.38;;;;;;;-0.70;100.00;96836.19;5039341;28;20506;-77
2021/11/19 01:45:31;;;;;;;20.73;9.40;;;;;;;-0.69;100.00;96832.59;5034666;28;20041;-76
2021/11/19 01:47:57;;;;;;;20.73;9.30;;;;;;;-0.81;100.00;96841.69;5034140;28;20499;-77
2021/11/19 01:50:35;;;;;;;19.95;9.10;;;;;;;-0.75;100.00;96841.84;5036661;28;20148;-76
2021/11/19 01:53:43;;;;;;;20.52;9.55;;;;;;;-0.75;100.00;96838.44;5031955;28;20046;-76
2021/11/19 01:56:56;;;;;;;19.83;8.90;;;;;;;-0.87;100.00;96840.56;5025226;28;20070;-77
2021/11/19 01:59:33;;;;;;;18.83;9.32;;;;;;;-1.14;100.00;96854.63;5029342;28;20056;-77
2021/11/19 02:02:08;;;;;;;21.33;9.50;;;;;;;-1.12;100.00;96850.09;5035245;28;20056;-77
2021/11/19 02:04:41;;;;;;;20.20;9.60;;;;;;;-1.01;100.00;96849.78;5034345;28;20046;-76
2021/11/19 02:07:20;;;;;;;19.67;8.90;;;;;;;-1.08;100.00;96841.06;5040725;28;20117;-77
2021/11/19 02:10:10;;;;;;;24.63;8.95;;;;;;;-0.96;100.00;96834.59;5044030;28;20046;-76
2021/11/19 02:12:58;;;;;;;17.65;8.60;;;;;;;-0.72;100.00;96833.75;5034264;28;20053;-77
2021/11/19 02:15:34;;;;;;;19.60;8.32;;;;;;;-0.53;100.00;96832.56;5033688;28;20049;-76
2021/11/19 02:18:34;;;;;;;19.83;8.60;;;;;;;-0.51;100.00;96823.84;5041512;28;20097;-77
2021/11/19 02:21:08;;;;;;;18.52;8.40;;;;;;;-0.76;100.00;96831.66;5021596;28;20054;-77
2021/11/19 02:23:59;;;;;;;15.18;7.90;;;;;;;-0.94;100.00;96840.41;5026942;28;20037;-77
2021/11/19 02:26:31;;;;;;;17.00;8.07;;;;;;;-0.98;100.00;96846.06;5031124;28;20060;-76
2021/11/19 02:28:57;;;;;;;18.05;8.50;;;;;;;-1.11;100.00;96855.09;5044625;28;20672;-76
2021/11/19 02:31:30;;;;;;;19.88;8.43;;;;;;;-1.12;100.00;96860.44;5035181;28;20053;-77
2021/11/19 02:34:00;;;;;;;16.92;8.00;;;;;;;-1.07;100.00;96855.59;5035649;28;20041;-77
2021/11/19 02:36:44;;;;;;;16.17;7.88;;;;;;;-1.15;100.00;96853.84;5026696;28;20100;-76
2021/11/19 02:39:15;;;;;;;16.70;7.88;;;;;;;-1.13;100.00;96851.09;5033794;28;20045;-77
2021/11/19 02:41:46;;;;;;;16.90;8.25;;;;;;;-1.15;100.00;96853.84;5032762;28;20048;-76
2021/11/19 02:44:15;;;;;;;19.48;8.90;;;;;;;-1.00;100.00;96846.22;5031687;28;20053;-77
2021/11/19 02:46:49;;;;;;;14.70;7.28;;;;;;;-0.88;100.00;96844.94;5033290;28;20057;-77
2021/11/19 02:49:15;;;;;;;14.82;7.38;;;;;;;-1.06;100.00;96841.72;5037163;28;20051;-76
2021/11/19 02:51:41;;;;;;;21.33;8.30;;;;;;;-1.06;100.00;96846.88;5025672;28;20049;-77
2021/11/19 02:54:09;;;;;;;15.90;7.85;;;;;;;-1.26;100.00;96842.03;5030456;28;20041;-76
2021/11/19 02:56:35;;;;;;;17.70;8.13;;;;;;;-1.33;100.00;96848.81;5024256;28;20049;-76
2021/11/19 02:59:02;;;;;;;18.15;8.50;;;;;;;-1.26;100.00;96842.03;5039356;28;20042;-76
2021/11/19 03:01:36;;;;;;;17.02;8.00;;;;;;;-1.28;100.00;96849.16;5033071;28;20072;-76
2021/11/19 03:04:04;;;;;;;;;;;;;;;-1.12;100.00;96852.69;5038858;28;20049;-77
2021/11/19 03:06:40;;;;;;;14.73;7.10;;;;;;;-1.03;100.00;96850.91;5033894;28;20108;-77
2021/11/19 03:09:07;;;;;;;15.55;7.25;;;;;;;-1.15;100.00;96847.84;5032393;28;20049;-77
2021/11/19 03:11:32;;;;;;;12.52;6.90;;;;;;;-1.32;100.00;96847.88;5024666;28;20551;-77
2021/11/19 03:13:58;;;;;;;16.05;7.50;;;;;;;-1.40;100.00;96856.41;5023325;28;20132;-77
2021/11/19 03:16:26;;;;;;;21.50;8.73;;;;;;;-1.69;100.00;96861.22;5039900;28;20056;-77
2021/11/19 03:18:52;;;;;;;18.02;8.40;;;;;;;-1.65;100.00;96867.66;5037418;28;20061;-76
2021/11/19 03:21:18;;;;;;;15.45;7.47;;;;;;;-1.54;100.00;96869.13;5032547;28;20095;-77
2021/11/19 03:23:45;;;;;;;17.10;7.72;;;;;;;-1.54;100.00;96863.97;5030157;28;20037;-76
2021/11/19 03:26:11;;;;;;;18.35;8.00;;;;;;;-1.66;100.00;96866.06;5042864;28;20049;-76
2021/11/19 03:28:36;;;;;;;16.55;8.10;;;;;;;-1.64;100.00;96864.94;5032542;28;20094;-77
2021/11/19 03:31:07;;;;;;;15.68;7.32;;;;;;;-1.58;100.00;96871.22;5030815;28;20037;-77
2021/11/19 03:33:40;;;;;;;15.38;7.40;;;;;;;-1.43;100.00;96876.59;5032111;28;20041;-76
2021/11/19 03:36:08;;;;;;;13.55;6.65;;;;;;;-1.41;100.00;96870.28;5032179;28;20045;-76
2021/11/19 03:38:36;;;;;;;14.98;7.03;;;;;;;-1.16;100.00;96867.72;5032860;28;20045;-76
2021/11/19 03:41:04;;;;;;;12.90;7.22;;;;;;;-1.00;100.00;96874.66;5032283;28;20061;-77
2021/11/19 03:43:35;;;;;;;13.65;7.00;;;;;;;-0.94;100.00;96866.25;5031092;28;20422;-76
2021/11/19 03:46:05;;;;;;;15.38;6.57;;;;;;;-0.91;100.00;96860.75;5019506;28;20083;-77
2021/11/19 03:48:31;;;;;;;13.10;7.03;;;;;;;-0.88;100.00;96865.63;5029374;28;20052;-77
2021/11/19 03:51:09;;;;;;;12.32;6.60;;;;;;;-0.86;100.00;96865.44;5031517;28;20042;-76
2021/11/19 03:53:35;;;;;;;13.20;6.55;;;;;;;-0.89;100.00;96863.16;5027367;28;20156;-76
2021/11/19 03:56:01;;;;;;;12.13;6.20;;;;;;;-0.96;100.00;96868.19;5031399;28;20044;-75
2021/11/19 03:58:30;;;;;;;14.95;6.35;;;;;;;-1.03;100.00;96867.22;5028255;28;20041;-76
2021/11/19 04:01:05;;;;;;;10.70;5.80;;;;;;;-0.97;100.00;96856.25;5031631;28;20068;-76
2021/11/19 04:03:31;;;;;;;12.95;6.60;;;;;;;-0.98;100.00;96859.78;5031415;28;20052;-76
2021/11/19 04:05:57;;;;;;;14.48;6.55;;;;;;;-1.05;100.00;96848.47;5028980;28;20045;-77
2021/11/19 04:08:23;;;;;;;11.85;6.00;;;;;;;-1.15;100.00;96847.84;5030511;28;20042;-76
2021/11/19 04:10:50;;;;;;;11.68;6.00;;;;;;;-1.30;100.00;96845.13;5030225;28;20060;-77
2021/11/19 04:13:17;;;;;;;12.38;6.28;;;;;;;-1.48;100.00;96853.00;5025895;28;20057;-76
2021/11/19 04:15:47;;;;;;;12.55;6.28;;;;;;;-1.38;100.00;96852.84;5032021;28;20053;-77
2021/11/19 04:18:13;;;;;;;13.50;6.47;;;;;;;-1.46;100.00;96845.91;5040676;28;20044;-77
2021/11/19 04:20:40;;;;;;;13.45;6.53;;;;;;;-1.57;100.00;96845.28;5039846;28;20045;-77
2021/11/19 04:23:06;;;;;;;11.48;6.15;;;;;;;-1.44;100.00;96838.81;5038592;28;20056;-77
2021/11/19 04:25:32;;;;;;;10.77;5.57;;;;;;;-1.40;100.00;96840.09;5038902;28;20136;-77
2021/11/19 04:27:57;;;;;;;11.45;6.05;;;;;;;-1.47;100.00;96847.69;5038893;28;20056;-77
2021/11/19 04:30:31;;;;;;;12.43;5.97;;;;;;;-1.35;100.00;96853.34;5053390;28;20120;-77
2021/11/19 04:32:57;;;;;;;12.43;6.10;;;;;;;-1.27;100.00;96844.78;5037891;28;20142;-77
2021/11/19 04:35:24;;;;;;;12.05;5.97;;;;;;;-1.23;100.00;96846.88;5039054;28;20053;-77
2021/11/19 04:37:49;;;;;;;15.10;6.38;;;;;;;-1.24;100.00;96845.25;5039545;28;20100;-77
2021/11/19 04:40:18;;;;;;;12.43;5.97;;;;;;;-1.16;100.00;96846.25;5041091;28;20045;-77
2021/11/19 04:42:44;;;;;;;10.82;5.60;;;;;;;-1.29;100.00;96842.38;5039333;28;20045;-77
2021/11/19 04:45:14;;;;;;;12.60;6.45;;;;;;;-1.42;100.00;96847.22;5039045;28;20049;-77
2021/11/19 04:47:40;;;;;;;15.55;7.78;;;;;;;-1.39;100.00;96852.06;5034356;28;20044;-77
2021/11/19 04:50:08;;;;;;;13.70;6.22;;;;;;;-1.34;100.00;96849.78;5039829;28;20045;-77
2021/11/19 04:52:34;;;;;;;17.88;8.10;;;;;;;-1.31;100.00;96833.97;5037581;28;20157;-77
2021/11/19 04:54:59;;;;;;;14.93;7.25;;;;;;;-1.28;100.00;96836.25;5039166;28;20085;-77
2021/11/19 04:57:25;;;;;;;20.58;8.48;;;;;;;-1.18;100.00;96824.94;5033433;28;20124;-77
2021/11/19 04:59:51;;;;;;;18.38;8.48;;;;;;;-1.20;100.00;96829.47;5039136;28;20044;-77
2021/11/19 05:02:20;;;;;;;20.50;9.05;;;;;;;-1.28;100.00;96838.00;5039450;28;20037;-77
2021/11/19 05:04:47;;;;;;;18.13;8.43;;;;;;;-1.44;100.00;96833.66;5037868;28;20045;-77
2021/11/19 05:07:12;;;;;;;21.15;8.38;;;;;;;-1.40;100.00;96830.56;5039374;28;20538;-77
2021/11/19 05:09:38;;;;;;;17.75;8.25;;;;;;;-1.45;100.00;96837.19;5039601;28;20053;-78
2021/11/19 05:12:23;;;;;;;18.65;8.07;;;;;;;-1.41;100.00;96843.66;5038469;28;20071;-78
2021/11/19 05:14:49;;;;;;;17.30;7.63;;;;;;;-1.40;100.00;96846.06;5033989;28;20038;-77
2021/11/19 05:17:17;;;;;;;19.65;8.65;;;;;;;-1.34;100.00;96828.31;5030057;28;20034;-77
2021/11/19 05:19:43;;;;;;;17.17;8.07;;;;;;;-1.00;100.00;96825.56;5038554;28;20057;-77
2021/11/19 05:22:10;;;;;;;18.95;8.23;;;;;;;-0.70;100.00;96825.84;5037014;28;20049;-77
2021/11/19 05:24:37;;;;;;;17.75;8.18;;;;;;;-0.49;100.00;96821.88;5038945;28;20068;-78
2021/11/19 05:27:03;;;;;;;21.25;8.48;;;;;;;-0.47;100.00;96825.13;5035045;28;20038;-78
2021/11/19 05:29:28;;;;;;;17.50;7.82;;;;;;;-0.40;100.00;96831.25;5032169;28;20510;-77
2021/11/19 05:31:55;;;;;;;16.98;7.70;;;;;;;-0.30;100.00;96831.84;5039667;28;20041;-77
2021/11/19 05:34:21;;;;;;;20.20;8.68;;;;;;;-0.26;100.00;96838.31;5036961;28;20052;-77
2021/11/19 05:36:47;;;;;;;18.10;7.75;;;;;;;-0.18;100.00;96834.88;5031804;28;20045;-78
2021/11/19 05:39:12;;;;;;;17.13;7.57;;;;;;;-0.14;100.00;96830.16;5037354;28;20576;-77
2021/11/19 05:41:38;;;;;;;17.02;7.75;;;;;;;-0.08;100.00;96829.50;5038658;28;20044;-78
2021/11/19 05:44:05;;;;;;;17.08;7.53;;;;;;;-0.01;100.00;96826.03;5036709;28;20048;-78
2021/11/19 05:46:39;;;;;;;17.02;8.18;;;;;;;0.04;100.00;96822.94;5038873;28;20095;-77
2021/11/19 05:49:06;;;;;;;17.25;7.68;;;;;;;0.01;100.00;96812.94;5036061;28;20526;-77
2021/11/19 05:51:33;;;;;;;18.75;8.45;;;;;;;0.06;100.00;96810.66;5050372;28;20058;-77
2021/11/19 05:53:59;;;;;;;18.98;8.27;;;;;;;0.05;100.00;96819.38;5047297;28;20045;-77
2021/11/19 05:56:25;;;;;;;19.55;8.77;;;;;;;0.07;100.00;96812.28;5036776;28;20167;-77
2021/11/19 05:58:52;;;;;;;21.55;8.38;;;;;;;0.11;100.00;96807.53;5036056;28;20045;-77
2021/11/19 06:01:20;;;;;;;19.85;9.13;;;;;;;0.13;100.00;96816.75;5035843;28;20072;-77
2021/11/19 06:03:47;;;;;;;21.48;9.32;;;;;;;0.10;100.00;96822.28;5035734;28;20041;-77
2021/11/19 06:06:13;;;;;;;23.95;9.68;;;;;;;0.06;100.00;96828.78;5036067;28;20045;-78
2021/11/19 06:08:41;;;;;;;19.20;9.38;;;;;;;0.03;100.00;96826.53;5033031;28;20045;-77
2021/11/19 06:11:14;;;;;;;22.52;8.88;;;;;;;0.03;100.00;96830.88;5031061;28;20116;-77
2021/11/19 06:13:47;;;;;;;22.02;9.45;;;;;;;-0.01;100.00;96833.81;5026298;28;20060;-77
2021/11/19 06:16:23;;;;;;;18.85;8.75;;;;;;;0.07;100.00;96832.16;5034615;28;20328;-77
2021/11/19 06:18:52;;;;;;;18.05;8.43;;;;;;;-0.07;100.00;96836.25;5036338;28;20071;-77
2021/11/19 06:21:22;;;;;;;21.05;9.30;;;;;;;-0.08;100.00;96839.84;5035543;28;20034;-77
2021/11/19 06:23:56;;;;;;;18.67;8.45;;;;;;;-0.26;100.00;96846.06;5034525;28;20045;-78
2021/11/19 06:26:24;;;;;;;20.27;9.50;;;;;;;-0.15;100.00;96838.91;5036902;28;20068;-77
2021/11/19 06:28:53;;;;;;;17.55;8.15;;;;;;;0.08;100.00;96844.13;5035918;28;20279;-77
2021/11/19 06:31:22;;;;;;;16.48;7.80;;;;;;;0.08;100.00;96839.75;5038890;28;20473;-77
2021/11/19 06:33:48;;;;;;;18.05;8.07;;;;;;;-0.04;100.00;96841.13;5036258;28;20111;-77
2021/11/19 06:36:15;;;;;;;18.98;8.25;;;;;;;-0.08;100.00;96850.19;5035667;28;20076;-77
2021/11/19 06:38:44;;;;;;;15.88;7.88;;;;;;;-0.13;100.00;96863.66;5037277;28;20056;-78
2021/11/19 06:41:10;;;;;;;17.08;7.90;;;;;;;-0.25;100.00;96865.78;5032814;28;20038;-78
2021/11/19 06:43:36;;;;;;;17.35;7.80;;;;;;;-0.38;100.00;96865.50;5029176;28;20045;-78
2021/11/19 06:46:02;;;;;;;20.70;8.65;;;;;;;-0.57;100.00;96867.47;5033033;28;20623;-77
2021/11/19 06:48:28;;;;;;;22.02;9.65;;;;;;;-0.73;100.00;96868.31;5030361;28;20072;-77
2021/11/19 06:50:54;;;;;;;22.20;9.38;;;;;;;-0.64;100.00;96876.88;5033185;28;20061;-76
2021/11/19 06:53:21;;;;;;;21.63;9.05;;;;;;;-0.66;100.00;96878.81;5031553;28;20041;-77
2021/11/19 06:55:48;;;;;;;19.83;8.85;;;;;;;-0.70;100.00;96882.72;5032334;28;20045;-76
2021/11/19 06:58:14;;;;;;;18.40;8.40;;;;;;;-0.73;100.00;96878.66;5031722;28;20045;-77
2021/11/19 07:00:43;;;;;;;19.13;8.82;;;;;;;-0.71;100.00;96881.88;5031691;28;20045;-75
2021/11/19 07:03:10;;;;;;;20.63;9.68;;;;;;;-0.82;100.00;96884.00;5027275;28;20495;-75
2021/11/19 07:05:36;;;;;;;22.20;9.35;;;;;;;-0.73;100.00;96883.84;5028052;28;20076;-75
2021/11/19 07:08:04;;;;;;;22.52;9.23;;;;;;;-0.70;100.00;96887.88;5027514;28;20610;-76
2021/11/19 07:10:31;;;;;;;25.92;8.57;;;;;;;-0.64;100.00;96897.56;5024937;28;20048;-75
2021/11/19 07:12:57;;;;;;;20.65;8.65;;;;;;;-0.54;100.00;96898.19;5027055;28;20499;-75
2021/11/19 07:15:23;;;;;;;19.10;8.23;;;;;;;-0.25;100.00;96896.81;5025939;28;20044;-74
2021/11/19 07:17:50;;;;;;;17.48;8.27;;;;;;;-0.05;100.00;96904.19;5023682;28;20038;-75
2021/11/19 07:20:21;;;;;;;17.60;8.20;;;;;;;0.02;100.00;96909.53;5025873;28;20069;-76
2021/11/19 07:22:47;;;;;;;17.52;7.72;;;;;;;0.03;100.00;96904.19;5023457;28;20491;-76
2021/11/19 07:25:16;;;;;;;19.52;8.40;;;;;;;0.05;100.00;96907.38;5026797;28;20120;-75
2021/11/19 07:27:43;;;;;;;23.05;8.77;;;;;;;-0.04;100.00;96919.56;5039102;28;20045;-76
2021/11/19 07:30:16;;;;;;;16.08;7.80;;;;;;;-0.15;100.00;96917.31;5027551;28;20045;-76
2021/11/19 07:32:41;;;;;;;18.40;7.38;;;;;;;0.02;100.00;96912.91;5027731;28;20052;-76
2021/11/19 07:35:08;;;;;;;31.15;11.00;;;;;;;0.26;100.00;96899.06;5027445;28;20064;-76
2021/11/19 07:37:35;;;;;;;21.42;8.57;;;;;;;0.34;100.00;96895.59;5028536;28;20563;-76
2021/11/19 07:40:01;;;;;;;20.13;8.45;;;;;;;0.45;100.00;96908.16;5022650;28;20510;-75
2021/11/19 07:42:27;;;;;;;17.05;7.80;;;;;;;0.51;100.00;96901.50;5025242;28;20049;-77
2021/11/19 07:44:52;;;;;;;17.00;7.63;;;;;;;0.61;100.00;96906.47;5021525;28;20037;-76
2021/11/19 07:47:18;;;;;;;14.32;6.95;;;;;;;0.69;100.00;96898.66;5020313;28;20499;-76
2021/11/19 07:49:44;;;;;;;16.05;7.00;;;;;;;0.82;100.00;96898.03;5037576;28;20033;-77
2021/11/19 07:52:10;;;;;;;13.02;6.53;;;;;;;0.92;100.00;96903.00;5024564;28;20099;-77
2021/11/19 07:54:36;;;;;;;12.52;6.90;;;;;;;0.98;100.00;96902.34;5029529;28;20045;-77
2021/11/19 07:57:02;;;;;;;12.75;5.82;;;;;;;1.06;100.00;96904.84;5029838;28;20055;-78
2021/11/19 07:59:30;;;;;;;13.57;5.72;;;;;;;1.13;100.00;96913.53;5025658;28;20061;-76
2021/11/19 08:01:59;;;;;;;15.50;5.63;;;;;;;1.20;100.00;96901.47;5027925;28;20538;-76
2021/11/19 08:04:26;;;;;;;10.82;5.20;;;;;;;1.30;100.00;96905.63;5027927;28;20038;-76
2021/11/19 08:06:52;;;;;;;12.65;5.40;;;;;;;1.33;100.00;96907.88;5046090;28;20111;-74
2021/11/19 08:09:18;;;;;;;11.50;5.70;;;;;;;1.36;100.00;96904.91;5053255;28;20055;-74
2021/11/19 08:11:44;;;;;;;9.02;4.50;;;;;;;1.46;100.00;96899.47;5050875;28;20081;-74
2021/11/19 08:14:10;;;;;;;8.15;4.50;;;;;;;1.43;100.00;96895.44;5049991;28;20079;-73
2021/11/19 08:16:48;;;;;;;12.27;5.00;;;;;;;1.44;100.00;96902.25;5053245;28;20032;-74
2021/11/19 08:19:37;;;;;;;7.82;4.30;;;;;;;1.54;100.00;96902.00;5052393;28;20060;-74
2021/11/19 08:22:04;;;;;;;8.57;4.43;;;;;;;1.47;100.00;96896.72;5068968;28;20036;-74
2021/11/19 08:24:30;;;;;;;9.05;4.68;;;;;;;1.43;100.00;96900.63;5053561;28;20041;-73
2021/11/19 08:27:02;;;;;;;9.82;4.78;;;;;;;1.43;100.00;96900.63;5040400;28;20030;-74
2021/11/19 08:29:31;;;;;;;9.68;4.88;;;;;;;1.54;100.00;96910.56;5029602;28;20452;-76
2021/11/19 08:31:59;;;;;;;9.15;4.47;;;;;;;1.88;100.00;96904.06;5028169;28;20042;-79
2021/11/19 08:34:25;;;;;;;8.65;4.63;;;;;;;1.89;100.00;96910.84;5028882;28;20046;-76
2021/11/19 08:36:51;;;;;;;7.60;4.28;;;;;;;1.93;100.00;96910.53;5023203;28;20533;-75
2021/11/19 08:39:20;;;;;;;14.30;4.40;;;;;;;1.94;100.00;96912.09;5030261;28;20052;-77
2021/11/19 08:41:47;;;;;;;8.82;4.35;;;;;;;2.01;100.00;96907.81;5010381;28;20100;-76
2021/11/19 08:44:14;;;;;;;9.73;5.25;;;;;;;2.25;100.00;96904.91;5008909;28;20108;-76
2021/11/19 08:46:43;;;;;;;7.90;4.65;;;;;;;2.34;100.00;96904.81;5016897;28;20139;-76
2021/11/19 08:49:13;;;;;;;9.23;4.57;;;;;;;2.47;100.00;96901.56;5010705;28;20152;-76
2021/11/19 08:51:39;;;;;;;8.80;4.40;;;;;;;2.56;100.00;96905.66;5014576;28;20057;-76
2021/11/19 08:54:08;;;;;;;9.15;4.97;;;;;;;2.70;100.00;96906.59;5008160;28;20081;-76
2021/11/19 08:56:37;;;;;;;8.27;4.60;;;;;;;2.63;100.00;96900.53;5019140;28;20466;-76
2021/11/19 08:59:04;;;;;;;9.45;5.03;;;;;;;2.82;100.00;96899.94;5028034;28;20488;-76
2021/11/19 09:01:30;;;;;;;7.85;4.07;;;;;;;2.98;100.00;96905.88;5027688;28;20049;-76
2021/11/19 09:03:56;;;;;;;7.05;3.88;;;;;;;3.03;100.00;96895.69;5031082;28;20077;-76
2021/11/19 09:06:22;;;;;;;9.68;4.05;;;;;;;3.21;100.00;96903.88;5030624;28;20041;-76
2021/11/19 09:08:48;;;;;;;6.97;4.18;;;;;;;3.33;100.00;96905.94;5031754;28;20049;-76
2021/11/19 09:11:19;;;;;;;7.97;4.30;;;;;;;3.50;100.00;96899.47;5029235;28;20546;-76
2021/11/19 09:13:47;;;;;;;6.45;3.95;;;;;;;3.67;100.00;96896.59;5031906;28;20045;-76
2021/11/19 09:16:14;;;;;;;8.57;5.15;;;;;;;3.80;99.43;96891.44;5030874;28;20124;-76
2021/11/19 09:19:16;;;;;;;9.77;4.70;;;;;;;3.91;100.00;96898.72;5031520;28;20045;-76
2021/11/19 09:21:53;;;;;;;7.78;4.03;;;;;;;3.98;99.51;96899.56;5031888;28;20033;-76
2021/11/19 09:24:23;;;;;;;11.73;3.80;;;;;;;4.20;98.38;96896.84;5030639;28;20045;-77
2021/11/19 09:26:56;;;;;;;7.72;3.88;;;;;;;4.46;97.63;96903.16;5030961;28;20048;-76
2021/11/19 09:29:33;;;;;;;7.75;3.97;;;;;;;4.94;95.76;96903.06;5030088;28;20042;-76
2021/11/19 09:31:59;;;;;;;6.20;2.88;;;;;;;5.46;91.24;96897.25;5029744;28;20732;-76
2021/11/19 09:34:27;;;;;;;7.35;4.22;;;;;;;6.28;88.92;96897.69;5029974;28;20052;-76
2021/11/19 09:36:53;;;;;;;10.23;3.75;;;;;;;7.01;84.85;96893.88;5030419;28;20076;-76
2021/11/19 09:39:26;;;;;;;8.73;4.10;;;;;;;7.59;81.28;96882.31;5030751;28;20038;-76
2021/11/19 09:42:01;;;;;;;8.43;3.22;;;;;;;7.46;81.13;96888.47;5029932;28;20426;-76
2021/11/19 09:44:45;;;;;;;5.68;3.20;;;;;;;7.93;81.36;96887.22;5035696;28;20038;-76
2021/11/19 09:47:22;;;;;;;6.25;3.78;;;;;;;8.06;78.29;96887.09;5030397;28;20045;-76
2021/11/19 09:50:07;;;;;;;7.90;4.00;;;;;;;8.52;75.58;96889.38;5031005;28;20049;-76
2021/11/19 09:53:11;;;;;;;7.53;4.20;;;;;;;8.84;72.99;96882.88;5029233;28;20038;-76
2021/11/19 09:56:09;;;;;;;10.23;4.80;;;;;;;8.91;75.05;96876.75;5029829;28;20041;-76
2021/11/19 09:59:14;;;;;;;11.93;5.35;;;;;;;8.65;74.40;96874.28;5030214;28;20495;-76
2021/11/19 10:01:46;;;;;;;10.30;5.45;;;;;;;7.90;78.28;96877.16;5031768;28;20037;-76
2021/11/19 10:04:27;;;;;;;10.68;5.47;;;;;;;7.74;79.59;96874.13;5031359;28;20391;-77
2021/11/19 10:07:01;;;;;;;10.90;5.95;;;;;;;7.62;79.73;96875.84;5031472;28;20459;-77
2021/11/19 10:09:55;;;;;;;10.75;5.78;;;;;;;7.95;78.58;96858.97;5031418;28;20041;-76
2021/11/19 10:12:27;;;;;;;12.13;6.03;;;;;;;8.12;77.06;96865.22;5032004;28;20498;-77
2021/11/19 10:15:06;;;;;;;11.57;6.05;;;;;;;8.52;77.58;96868.41;5033700;28;20041;-76
2021/11/19 10:17:40;;;;;;;11.32;5.90;;;;;;;8.97;75.79;96870.59;5030113;28;20046;-76
2021/11/19 10:20:18;;;;;;;;;;;;;;;8.76;75.09;96870.06;5031358;28;20072;-76
2021/11/19 10:22:56;;;;;;;10.15;5.55;;;;;;;8.04;77.87;96867.34;5029645;28;20449;-76
2021/11/19 10:25:43;;;;;;;13.60;7.13;;;;;;;8.12;78.79;96861.81;5036524;28;20042;-77
2021/11/19 10:28:14;;;;;;;17.10;7.93;;;;;;;8.15;76.98;96870.03;5010788;28;20076;-76
2021/11/19 10:30:46;;;;;;;18.88;9.15;;;;;;;7.82;78.46;96861.75;5030104;28;20065;-76
2021/11/19 10:33:21;;;;;;;18.58;9.15;;;;;;;7.44;80.62;96864.34;5029514;28;20045;-76
2021/11/19 10:35:57;;;;;;;17.95;9.27;;;;;;;6.93;81.33;96862.72;5023008;28;20531;-76
2021/11/19 10:38:47;;;;;;;16.50;8.30;;;;;;;7.02;82.78;96860.66;5011697;28;20440;-77
2021/11/19 10:41:31;;;;;;;19.90;9.10;;;;;;;6.93;84.23;96847.03;5012611;28;20041;-77
2021/11/19 10:44:26;;;;;;;15.48;8.57;;;;;;;7.01;83.66;96849.38;5012267;28;20045;-77
2021/11/19 10:47:05;;;;;;;14.27;7.68;;;;;;;7.04;83.67;96843.72;5031551;28;20087;-77
2021/11/19 10:49:38;;;;;;;15.68;8.05;;;;;;;7.07;83.72;96845.91;5022711;28;20060;-77
2021/11/19 10:52:28;;;;;;;17.10;7.72;;;;;;;7.03;83.08;96841.31;5026685;28;20041;-77
2021/11/19 10:55:31;;;;;;;17.65;8.07;;;;;;;7.11;84.02;96839.22;5030800;28;20475;-77
2021/11/19 10:58:27;;;;;;;16.92;7.85;;;;;;;7.26;81.72;96845.97;5027700;28;20041;-75
2021/11/19 11:00:53;;;;;;;15.85;8.45;;;;;;;7.17;83.29;96842.00;5032375;28;20048;-76
2021/11/19 11:03:23;;;;;;;16.55;8.38;;;;;;;7.43;82.07;96841.78;5031729;28;20045;-80
2021/11/19 11:05:59;;;;;;;14.98;7.55;;;;;;;8.09;81.41;96834.22;5026081;28;20052;-80
2021/11/19 11:08:31;;;;;;;13.13;7.40;;;;;;;7.90;79.07;96830.00;5023093;28;20037;-81
2021/11/19 11:11:13;;;;;;;16.27;7.75;;;;;;;8.04;79.89;96836.69;5016519;28;20484;-80
2021/11/19 11:13:41;;;;;;;14.88;7.72;;;;;;;8.10;79.09;96835.81;5017264;28;20045;-81
2021/11/19 11:16:16;;;;;;;18.63;9.20;;;;;;;8.38;78.19;96837.06;5029311;28;20637;-83
2021/11/19 11:18:45;;;;;;;17.80;8.80;;;;;;;8.76;75.53;96843.81;5031161;28;20115;-76
2021/11/19 11:21:34;;;;;;;16.88;8.30;;;;;;;9.52;75.65;96841.41;5027290;28;20097;-76
2021/11/19 11:24:13;;;;;;;16.73;8.38;;;;;;;10.19;70.72;96834.88;5029789;28;20525;-76
2021/11/19 11:26:46;;;;;;;16.90;8.52;;;;;;;10.22;69.33;96823.09;5021115;28;20080;-77
2021/11/19 11:29:15;;;;;;;16.67;8.27;;;;;;;10.36;70.33;96813.13;5029908;28;20092;-80
2021/11/19 11:31:56;;;;;;;15.77;8.65;;;;;;;10.90;68.37;96807.44;5033186;28;20045;-77
2021/11/19 11:34:26;;;;;;;17.63;8.00;;;;;;;11.34;67.92;96802.31;5023916;28;20061;-77
2021/11/19 11:36:57;;;;;;;13.23;6.82;;;;;;;11.10;67.42;96796.44;5032857;28;20053;-77
2021/11/19 11:40:00;;;;;;;12.68;6.72;;;;;;;11.08;64.48;96793.25;5029374;28;20096;-76